• Join FlightAware (Why Join?)
  • Login
  • US Flag 
Gobble Gobble! 
08:28PM EST


 

Airport Tracker/Info


-or-


 

Live Flight TrackerFlight Track Log ✈ GJS3707 ✈ 10-Jul-2013 ✈ KBOI - KORD

Flight Track Log - Related Links

Times and Time Zones

All times are in EDT time to prevent confusion due to time zone crossing. See the GJS3707 flight status page for this flight to view local times or setup timezone preferences in your user account.

Time Position Orientation Groundspeed Altitude Reporting Facility
EDT Latitude Longitude Course Direction KTS MPH feet Rate Location/Type
03:10PM 43.6133 -116.3769 295° West 232 267 6,700  Level Salt Lake Center
03:11PM 43.6358 -115.6920 82° East  Level FlightAware Approximate
03:11PM 43.6658 -116.4483 315° West 281 323 8,300  Level Salt Lake Center
03:12PM 43.6615 -115.5155 65° Northeast  Level FlightAware Approximate
03:12PM 43.7258 -116.3833 38° Northeast 297 342 10,100  Level Salt Lake Center
03:13PM 43.6774 -115.3369 81° East  Level FlightAware Approximate
03:13PM 43.7386 -116.2522 82° East 307 353 11,600  Level Salt Lake Center
03:14PM 43.7080 -115.1619 81° East  Level FlightAware Approximate
03:14PM 43.7517 -116.1253 82° East 345 397 12,600  Level Salt Lake Center
03:15PM 43.7758 -115.9672 78° East 376 433 14,500 1,620 Climbing Salt Lake Center
03:16PM 43.8072 -115.8317 72° East 386 444 16,000 1,500 Climbing Salt Lake Center
03:17PM 43.8394 -115.6658 75° East 398 458 17,700 1,560 Climbing Salt Lake Center
03:18PM 43.8653 -115.5206 76° East 406 467 19,300 1,440 Climbing Salt Lake Center
03:19PM 43.8808 -115.3442 83° East 416 479 20,800 1,380 Climbing Salt Lake Center
03:20PM 43.8933 -115.1869 84° East 427 491 22,200 1,260 Climbing Salt Lake Center
03:21PM 43.9083 -115.0028 83° East 433 498 23,500 1,080 Climbing Salt Lake Center
03:22PM 43.9208 -114.8400 84° East 445 512 24,500 960 Climbing Salt Lake Center
03:23PM 43.9361 -114.6439 84° East 457 526 25,600 960 Climbing Salt Lake Center
03:24PM 43.9486 -114.4731 84° East 464 534 26,600 960 Climbing Salt Lake Center
03:25PM 43.9633 -114.2717 84° East 471 542 27,700 960 Climbing Salt Lake Center
03:26PM 43.9750 -114.0947 85° East 480 552 28,600 840 Climbing Salt Lake Center
03:27PM 43.9900 -113.8847 84° East 489 563 29,500 780 Climbing Salt Lake Center
03:28PM 44.0014 -113.7036 85° East 492 566 30,300 840 Climbing Salt Lake Center
03:29PM 44.0142 -113.4903 85° East 496 571 31,300 780 Climbing Salt Lake Center
03:31PM 44.0267 -113.3058 85° East 498 573 32,000 720 Climbing Salt Lake Center
03:32PM 44.0208 -113.0892 92° East 503 579 32,800 660 Climbing Salt Lake Center
03:33PM 43.9997 -112.9017 99° East 511 588 33,400 600 Climbing Salt Lake Center
03:34PM 43.9831 -112.7153 97° East 509 586 34,100 720 Climbing Salt Lake Center
03:35PM 43.9639 -112.4964 97° East 512 589 34,900 600 Climbing Salt Lake Center
03:36PM 43.9464 -112.3072 97° East 515 593 35,400 600 Climbing Salt Lake Center
03:37PM 43.9283 -112.0867 96° East 518 596 36,200 720 Climbing Salt Lake Center
03:38PM 43.9489 -111.9011 81° East 514 592 36,900 660 Climbing Salt Lake Center
03:39PM 43.9772 -111.6867 80° East 511 588 37,600 600 Climbing Salt Lake Center
03:40PM 44.0006 -111.5039 80° East 507 583 38,200 540 Climbing Salt Lake Center
03:41PM 44.0264 -111.2925 80° East 502 578 38,800 360 Climbing Salt Lake Center
03:42PM 44.0481 -111.1136 80° East 496 571 39,000 60 Climbing Salt Lake Center
03:43PM 44.0711 -110.9017 81° East 498 573 39,000  Level Salt Lake Center
03:44PM 44.0828 -110.7133 85° East 510 587 39,000  Level Salt Lake Center
03:45PM 44.0892 -110.4925 88° East 513 590 39,000  Level Salt Lake Center
03:46PM 44.0883 -110.3036 90° East 512 589 39,000  Level Salt Lake Center
03:47PM 44.0897 -110.0803 89° East 515 593 39,000  Level Salt Lake Center
03:48PM 44.0886 -109.8897 90° East 517 595 39,000  Level Salt Lake Center
03:49PM 44.0842 -109.6683 92° East 515 593 39,000  Level Salt Lake Center
03:50PM 44.0831 -109.4772 90° East 514 592 39,000  Level Salt Lake Center
03:51PM 44.0800 -109.2814 91° East 511 588 39,000  Level Salt Lake Center
03:52PM 44.0761 -109.0458 91° East 510 587 39,000  Level Salt Lake Center
03:53PM 44.0728 -108.8514 91° East 508 585 39,000  Level Salt Lake Center
03:54PM 44.0681 -108.6553 92° East 509 586 39,000  Level Salt Lake Center
03:55PM 44.0639 -108.4597 92° East 510 587 39,000  Level Salt Lake Center
03:56PM 44.0589 -108.2625 92° East 512 589 39,000  Level Salt Lake Center
03:57PM 44.0531 -108.0644 92° East 515 593 39,000  Level Salt Lake Center
03:58PM 44.0475 -107.8303 92° East 511 588 39,000  Level Salt Lake Center
03:59PM 44.0408 -107.6339 93° East 512 589 39,000  Level Salt Lake Center
04:00PM 44.0350 -107.4383 92° East 512 589 39,000  Level Salt Lake Center
04:02PM 44.0292 -107.2408 92° East 513 590 39,000  Level Salt Lake Center
04:03PM 44.0228 -107.0444 93° East 512 589 39,000  Level Salt Lake Center
04:04PM 44.0142 -106.8086 93° East 514 592 39,000  Level Salt Lake Center
04:05PM 44.0072 -106.6108 93° East 514 592 39,000  Level Salt Lake Center
04:06PM 43.9986 -106.4133 93° East 514 592 39,000  Level Salt Lake Center
04:07PM 44.0011 -106.2169 89° East 512 589 39,000  Level Salt Lake Center
04:08PM 44.0061 -105.9894 88° East 515 593 39,000  Level Salt Lake Center
04:09PM 44.0069 -105.8031 90° East 509 586 39,000  Level Salt Lake Center
04:10PM 44.0044 -105.5883 91° East 502 578 39,000  Level Salt Lake Center
04:11PM 44.0050 -105.3986 90° East 510 587 39,000  Level Salt Lake Center
04:12PM 44.0044 -105.2119 90° East 507 583 39,000  Level Salt Lake Center
04:13PM 44.0042 -104.9925 90° East 506 582 39,000  Level Salt Lake Center
04:14PM 44.0025 -104.8039 91° East 509 586 39,000  Level Salt Lake Center
04:15PM 44.0025 -104.7108 90° East 507 583 39,000  Level Denver Center
04:16PM 43.9997 -104.4600 91° East 508 585 39,000  Level Denver Center
04:17PM 43.9975 -104.2731 91° East 507 583 39,000  Level Denver Center
04:18PM 43.9953 -104.0558 91° East 505 581 39,000  Level Denver Center
04:19PM 43.9919 -103.8675 91° East 508 585 39,000  Level Denver Center
04:20PM 43.9897 -103.6783 91° East 513 590 39,000  Level Denver Center
04:21PM 43.9856 -103.4594 91° East 510 587 39,000  Level Denver Center
04:22PM 43.9825 -103.2728 91° East 506 582 39,000  Level Denver Center
04:23PM 43.9797 -103.0550 91° East 505 581 39,000  Level Denver Center
04:24PM 43.9750 -102.8678 92° East 506 582 39,000  Level Denver Center
04:25PM 43.9667 -102.6603 93° East 508 585 39,000  Level Denver Center
04:26PM 43.9592 -102.4647 93° East 508 585 39,000  Level Denver Center
04:27PM 43.9542 -102.2711 92° East 506 582 39,000  Level Denver Center
04:28PM 43.9458 -102.0772 93° East 506 582 39,000  Level Denver Center
04:29PM 43.9381 -101.8839 93° East 505 581 39,000  Level Denver Center
04:30PM 43.9300 -101.6539 93° East 500 575 39,000  Level Denver Center
04:31PM 43.9247 -101.4653 92° East 498 573 39,000  Level Denver Center
04:32PM 43.9183 -101.2747 93° East 499 574 39,000  Level Minneapolis Center
04:33PM 43.9075 -101.0422 94° East 502 578 39,000  Level Minneapolis Center
04:34PM 43.9011 -100.8500 93° East 503 579 39,000  Level Minneapolis Center
04:35PM 43.9356 -100.6683 75° East 498 573 39,000  Level Minneapolis Center
04:36PM 44.0272 -100.5436 44° Northeast 471 542 39,000  Level Minneapolis Center
04:37PM 44.1247 -100.4308 40° Northeast 458 527 39,000  Level Minneapolis Center
04:38PM 44.2208 -100.3139 41° Northeast 459 528 39,000  Level Minneapolis Center
04:39PM 44.3325 -100.1717 42° Northeast 456 525 39,000  Level Minneapolis Center
04:40PM 44.4256 -100.0544 42° Northeast 453 521 39,000  Level Minneapolis Center
04:41PM 44.5167 -99.9303 44° Northeast 457 526 39,000  Level Minneapolis Center
04:43PM 44.5678 -99.7589 67° East 481 554 39,000  Level Minneapolis Center
04:44PM 44.5653 -99.5636 91° East 504 580 39,000  Level Minneapolis Center
04:45PM 44.5336 -99.3300 101° East 512 589 39,000  Level Minneapolis Center
04:46PM 44.5058 -99.1328 101° East 516 594 39,000  Level Minneapolis Center
04:47PM 44.4789 -98.9358 101° East 517 595 39,000  Level Minneapolis Center
04:48PM 44.4514 -98.7381 101° East 519 597 39,000  Level Minneapolis Center
04:49PM 44.4222 -98.5408 102° East 520 598 39,000  Level Minneapolis Center
04:50PM 44.3903 -98.3283 102° East 519 597 39,000  Level Minneapolis Center
04:51PM 44.3600 -98.1319 102° East 518 596 39,000  Level Minneapolis Center
04:52PM 44.3319 -97.9392 101° East 512 589 39,000  Level Minneapolis Center
04:53PM 44.2958 -97.7064 102° East 512 589 39,000  Level Minneapolis Center
04:54PM 44.2600 -97.4742 102° East 513 590 39,000  Level Minneapolis Center
04:55PM 44.2306 -97.2803 102° East 514 592 39,000  Level Minneapolis Center
04:56PM 44.1978 -97.0869 103° East 514 592 39,000  Level Minneapolis Center
04:57PM 44.1606 -96.8553 103° East 514 592 39,000  Level Minneapolis Center
04:58PM 44.1228 -96.6233 103° East 516 594 39,000  Level Minneapolis Center
05:00PM 44.0802 -96.4377 102° East  Level FlightAware Approximate
05:01PM 44.0594 -96.2411 102° East 520 598 39,000  Level Minneapolis Center
05:02PM 44.0269 -96.0500 103° East 524 603 39,000  Level Minneapolis Center
05:03PM 43.9894 -95.8211 103° East 515 593 39,000  Level Minneapolis Center
05:04PM 43.9553 -95.6294 104° East 514 592 39,000  Level Minneapolis Center
05:05PM 43.9225 -95.4375 103° East 515 593 39,000  Level Minneapolis Center
05:06PM 43.8875 -95.2456 104° East 516 594 39,000  Level Minneapolis Center
05:07PM 43.8528 -95.0544 104° East 514 592 39,000  Level Minneapolis Center
05:08PM 43.8119 -94.8253 104° East 513 590 39,000  Level Minneapolis Center
05:09PM 43.7756 -94.6347 105° East 513 590 39,000  Level Minneapolis Center
05:10PM 43.7414 -94.4439 104° East 512 589 39,000  Level Minneapolis Center
05:11PM 43.7050 -94.2450 104° East 512 589 39,000  Level Minneapolis Center
05:12PM 43.6681 -94.0569 105° East 511 588 39,000  Level Minneapolis Center
05:13PM 43.6328 -93.8675 104° East 513 590 39,000  Level Minneapolis Center
05:14PM 43.5964 -93.6786 105° East 512 589 39,000  Level Minneapolis Center
05:15PM 43.5522 -93.4536 105° East 512 589 39,000  Level Minneapolis Center
05:16PM 43.5150 -93.2667 105° East 512 589 39,000  Level Minneapolis Center
05:17PM 43.4772 -93.0794 105° East 512 589 39,000 -540 Level Minneapolis Center
05:18PM 43.4392 -92.8906 105° East 514 592 37,900 -1,200 Descending Minneapolis Center
05:19PM 43.4014 -92.7028 105° East 515 593 36,600 -1,260 Descending Minneapolis Center
05:20PM 43.3631 -92.5131 105° East 517 595 35,400 -1,320 Descending Minneapolis Center
05:21PM 43.3147 -92.2744 105° East 532 612 33,900 -1,320 Descending Minneapolis Center
05:22PM 43.2756 -92.0833 106° East 526 605 32,700 -1,020 Descending Minneapolis Center
05:23PM 43.2372 -91.8953 106° East 518 596 31,800 -840 Descending Minneapolis Center
05:24PM 43.1975 -91.7097 106° East 517 595 31,000 -420 Descending Minneapolis Center
05:25PM 43.1419 -91.5269 113° Southeast 522 601 31,000  Level Minneapolis Center
05:26PM 43.0661 -91.3119 116° Southeast 522 601 31,000  Level Minneapolis Center
05:27PM 43.0158 -91.1692 116° Southeast 523 602 31,000  Level Chicago Center
05:28PM 42.9536 -90.9925 116° Southeast 520 598 31,000 -60 Level Chicago Center
05:29PM 42.8931 -90.8164 115° Southeast 515 593 30,900 -720 Descending Chicago Center
05:30PM 42.8322 -90.6428 115° Southeast 511 588 29,600 -1,320 Descending Chicago Center
05:31PM 42.7703 -90.4744 117° Southeast 502 578 28,200 -1,260 Descending Chicago Center
05:32PM 42.7131 -90.3119 116° Southeast 483 556 27,000 -1,260 Descending Chicago Center
05:33PM 42.6444 -90.1242 116° Southeast 467 537 25,600 -1,200 Descending Chicago Center
05:34PM 42.5933 -89.9653 114° Southeast 466 536 24,600 -1,380 Descending Chicago Center
05:35PM 42.5675 -89.7789 101° East 472 543 22,800 -1,680 Descending Chicago Center
05:37PM 42.5417 -89.6047 101° East 474 545 21,200 -1,500 Descending Chicago Center
05:38PM 42.5172 -89.4358 101° East 463 533 19,700 -1,500 Descending Chicago Center
05:39PM 42.4933 -89.2708 101° East 450 518 18,200 -1,620 Descending Chicago Center
05:40PM 42.4642 -89.0806 102° East 445 512 16,400 -1,800 Descending Chicago Center
05:41PM 42.4400 -88.9261 102° East 426 490 14,500 -1,800 Descending Chicago Center
05:42PM 42.4178 -88.7764 101° East 411 473 12,700 -1,680 Descending Chicago Center
05:43PM 42.3956 -88.6353 102° East 391 450 11,100 -1,260 Descending Chicago Center
05:44PM 42.3725 -88.4983 103° East 378 435 10,100 -540 Descending Chicago Center
05:45PM 42.3281 -88.3725 116° Southeast 373 429 10,000 -60 Descending Chicago Center
05:46PM 42.2508 -88.2419 129° Southeast 372 428 10,000 -300 Level Chicago Center
05:47PM 42.1922 -88.1436 129° Southeast 339 390 9,500 -1,020 Descending Chicago Center
05:48PM 42.1447 -88.0600 127° Southeast 299 344 7,900 -1,260 Descending Chicago Center
05:49PM 42.1231 -87.9556 106° East 291 335 7,000 -600 Descending Chicago Center
05:50PM 42.1167 -87.9000 99° East 252 290 7,000  Level Chicago TRACON
05:51PM 42.1000 -87.8167 105° East 229 264 7,000 -900 Level Chicago TRACON
05:52PM 42.0833 -87.7333 105° East 220 253 5,300 -1,800 Descending Chicago TRACON
05:52PM 42.0664 -87.7053 129° Southeast 227 261 4,300 -2,040 Descending Chicago Center